createdAt,value
2022-08-19T00:01:30.810Z,98.04
2022-08-19T00:04:03.178Z,98.80
2022-08-19T00:06:33.248Z,100.00
2022-08-19T00:09:03.857Z,100.00
2022-08-19T00:11:32.570Z,100.00
2022-08-19T00:14:04.667Z,100.00
2022-08-19T00:16:34.942Z,100.00
2022-08-19T00:19:05.420Z,100.00
2022-08-19T00:21:34.396Z,100.00
2022-08-19T00:24:10.512Z,100.00
2022-08-19T00:26:41.745Z,100.00
2022-08-19T00:29:15.300Z,100.00
2022-08-19T00:31:45.327Z,100.00
2022-08-19T00:34:16.127Z,100.00
2022-08-19T00:36:45.459Z,100.00
2022-08-19T00:39:16.492Z,100.00
2022-08-19T00:41:50.514Z,100.00
2022-08-19T00:44:26.642Z,100.00
2022-08-19T00:46:58.845Z,100.00
2022-08-19T00:49:37.246Z,100.00
2022-08-19T00:52:12.209Z,100.00
2022-08-19T00:54:42.803Z,100.00
2022-08-19T00:57:14.598Z,100.00
2022-08-19T00:59:58.779Z,100.00
2022-08-19T01:02:24.693Z,100.00
2022-08-19T01:04:55.281Z,100.00
2022-08-19T01:07:24.596Z,100.00
2022-08-19T01:12:52.626Z,100.00
2022-08-19T01:15:28.907Z,100.00
2022-08-19T01:17:59.799Z,100.00
2022-08-19T01:20:30.323Z,100.00
2022-08-19T01:23:17.637Z,100.00
2022-08-19T01:25:57.504Z,100.00
2022-08-19T01:28:34.109Z,100.00
2022-08-19T01:31:08.188Z,100.00
2022-08-19T01:33:36.550Z,100.00
2022-08-19T01:36:11.820Z,100.00
2022-08-19T01:38:49.054Z,100.00
2022-08-19T01:41:19.107Z,100.00
2022-08-19T01:44:13.698Z,100.00
2022-08-19T01:46:25.056Z,100.00
2022-08-19T01:48:53.748Z,100.00
2022-08-19T01:51:23.951Z,100.00
2022-08-19T01:53:53.967Z,100.00
2022-08-19T01:56:22.697Z,100.00
2022-08-19T01:59:00.166Z,100.00
2022-08-19T02:01:30.409Z,100.00
2022-08-19T02:04:03.860Z,100.00
2022-08-19T02:06:32.579Z,100.00
2022-08-19T02:09:01.897Z,100.00
2022-08-19T02:11:34.461Z,100.00
2022-08-19T02:14:08.992Z,100.00
2022-08-19T02:16:39.367Z,100.00
2022-08-19T02:19:17.128Z,100.00
2022-08-19T02:21:46.388Z,100.00
2022-08-19T02:24:15.196Z,100.00
2022-08-19T02:26:43.921Z,100.00
2022-08-19T02:29:12.713Z,100.00
2022-08-19T02:31:41.497Z,100.00
2022-08-19T02:34:11.420Z,100.00
2022-08-19T02:36:42.522Z,100.00
2022-08-19T02:39:11.439Z,100.00
2022-08-19T02:41:40.227Z,100.00
2022-08-19T02:44:30.136Z,100.00
2022-08-19T02:46:41.229Z,100.00
2022-08-19T02:49:13.139Z,100.00
2022-08-19T02:51:46.567Z,100.00
2022-08-19T02:54:19.607Z,100.00
2022-08-19T02:56:48.374Z,100.00
2022-08-19T02:59:17.079Z,100.00
2022-08-19T03:01:48.564Z,100.00
2022-08-19T03:04:18.269Z,100.00
2022-08-19T03:06:48.876Z,100.00
2022-08-19T03:09:19.400Z,100.00
2022-08-19T03:11:48.626Z,100.00
2022-08-19T03:14:19.188Z,100.00
2022-08-19T03:16:51.002Z,100.00
2022-08-19T03:19:22.385Z,100.00
2022-08-19T03:21:52.014Z,100.00
2022-08-19T03:24:21.629Z,100.00
2022-08-19T03:26:53.637Z,100.00
2022-08-19T03:29:30.100Z,100.00
2022-08-19T03:31:55.621Z,100.00
2022-08-19T03:34:30.807Z,100.00
2022-08-19T03:37:01.684Z,100.00
2022-08-19T03:39:30.433Z,100.00
2022-08-19T03:42:33.187Z,100.00
2022-08-19T03:44:33.323Z,100.00
2022-08-19T03:47:05.566Z,100.00
2022-08-19T03:49:36.939Z,100.00
2022-08-19T03:52:07.919Z,100.00
2022-08-19T03:54:41.075Z,100.00
2022-08-19T03:57:17.094Z,100.00
2022-08-19T03:59:48.482Z,100.00
2022-08-19T04:02:17.037Z,100.00
2022-08-19T04:04:46.315Z,100.00
2022-08-19T04:07:26.375Z,100.00
2022-08-19T04:09:54.821Z,100.00
2022-08-19T04:12:23.953Z,100.00
2022-08-19T04:14:55.670Z,100.00
2022-08-19T04:17:30.518Z,100.00
2022-08-19T04:19:59.727Z,100.00
2022-08-19T04:22:34.179Z,100.00
2022-08-19T04:25:03.164Z,100.00
2022-08-19T04:27:33.948Z,100.00
2022-08-19T04:30:03.086Z,100.00
2022-08-19T04:32:38.053Z,100.00
2022-08-19T04:35:17.416Z,100.00
2022-08-19T04:37:43.908Z,100.00
2022-08-19T04:40:32.859Z,100.00
2022-08-19T04:43:02.405Z,100.00
2022-08-19T04:45:39.612Z,100.00
2022-08-19T04:48:27.425Z,100.00
2022-08-19T04:50:34.545Z,100.00
2022-08-19T04:53:04.591Z,100.00
2022-08-19T04:55:38.205Z,100.00
2022-08-19T04:58:05.973Z,100.00
2022-08-19T05:00:35.221Z,100.00
2022-08-19T05:03:05.072Z,100.00
2022-08-19T05:05:45.372Z,100.00
2022-08-19T05:08:12.712Z,100.00
2022-08-19T05:10:43.315Z,100.00
2022-08-19T05:13:13.525Z,100.00
2022-08-19T05:15:42.688Z,99.35
2022-08-19T05:18:29.809Z,97.68
2022-08-19T05:21:16.944Z,97.32
2022-08-19T05:23:46.171Z,99.64
2022-08-19T05:26:15.803Z,96.13
2022-08-19T05:28:44.432Z,93.13
2022-08-19T05:31:15.496Z,92.87
2022-08-19T05:33:47.800Z,89.92
2022-08-19T05:36:16.962Z,87.57
2022-08-19T05:39:08.434Z,86.46
2022-08-19T05:41:31.802Z,85.88
2022-08-19T05:44:02.447Z,88.76
2022-08-19T05:46:31.986Z,85.09
2022-08-19T05:49:02.096Z,82.74
2022-08-19T05:51:33.230Z,82.35
2022-08-19T05:54:04.246Z,83.42
2022-08-19T05:56:34.031Z,80.06
2022-08-19T05:59:02.705Z,79.37
2022-08-19T06:01:31.422Z,77.23
2022-08-19T06:04:02.042Z,76.97
2022-08-19T06:06:31.080Z,75.57
2022-08-19T06:09:01.298Z,75.41
2022-08-19T06:11:44.502Z,72.15
2022-08-19T06:14:18.149Z,68.41
2022-08-19T06:16:52.283Z,68.33
2022-08-19T06:19:26.577Z,69.50
2022-08-19T06:21:55.321Z,67.45
2022-08-19T06:24:28.437Z,68.32
2022-08-19T06:27:01.646Z,67.13
2022-08-19T06:29:31.985Z,66.22
2022-08-19T06:32:03.582Z,64.81
2022-08-19T06:34:35.076Z,63.71
2022-08-19T06:37:05.508Z,62.94
2022-08-19T06:39:37.960Z,61.19
2022-08-19T06:45:34.750Z,60.85
2022-08-19T06:48:00.568Z,60.33
2022-08-19T06:50:39.695Z,60.99
2022-08-19T06:55:56.746Z,58.11
2022-08-19T06:58:28.781Z,57.75
2022-08-19T07:01:13.869Z,56.90
2022-08-19T07:03:46.534Z,56.29
2022-08-19T07:06:44.460Z,54.76
2022-08-19T07:12:20.672Z,53.91
2022-08-19T07:27:06.778Z,51.50
2022-08-19T07:29:38.798Z,51.45
2022-08-19T07:32:11.563Z,50.83
2022-08-19T07:34:42.324Z,49.98
2022-08-19T07:37:12.057Z,51.46
2022-08-19T07:39:44.198Z,51.83
2022-08-19T07:42:14.225Z,51.96
2022-08-19T07:44:50.115Z,50.32
2022-08-19T07:47:50.025Z,49.79
2022-08-19T07:49:46.367Z,48.66
2022-08-19T07:52:15.401Z,48.02
2022-08-19T07:54:44.691Z,46.42
2022-08-19T07:57:13.654Z,47.33
2022-08-19T07:59:42.299Z,45.71
2022-08-19T08:02:15.969Z,44.99
2022-08-19T08:08:00.546Z,44.46
2022-08-19T08:10:31.429Z,43.60
2022-08-19T08:13:19.008Z,43.67
2022-08-19T08:15:49.535Z,43.56
2022-08-19T08:18:27.902Z,42.77
2022-08-19T08:23:41.891Z,42.69
2022-08-19T08:26:10.946Z,42.21
2022-08-19T08:28:55.904Z,42.09
2022-08-19T08:31:29.603Z,42.27
2022-08-19T08:34:00.196Z,42.26
2022-08-19T08:36:34.041Z,41.37
2022-08-19T08:39:12.275Z,40.61
2022-08-19T08:41:50.615Z,41.68
2022-08-19T08:44:45.638Z,40.35
2022-08-19T08:47:21.781Z,39.08
2022-08-19T08:50:02.535Z,38.77
2022-08-19T08:52:50.567Z,38.45
2022-08-19T08:55:26.196Z,38.90
2022-08-19T08:58:32.036Z,37.33
2022-08-19T09:01:05.689Z,37.53
2022-08-19T09:03:39.112Z,37.03
2022-08-19T09:06:36.381Z,36.87
2022-08-19T09:09:28.891Z,36.36
2022-08-19T09:12:07.146Z,36.01
2022-08-19T09:14:52.431Z,36.01
2022-08-19T09:17:26.175Z,35.84
2022-08-19T09:20:00.318Z,34.27
2022-08-19T09:22:37.129Z,34.27
2022-08-19T09:25:08.826Z,33.94
2022-08-19T09:27:43.392Z,33.17
2022-08-19T09:30:13.134Z,33.06
2022-08-19T09:32:44.557Z,32.51
2022-08-19T09:35:14.308Z,30.75
2022-08-19T09:37:45.564Z,30.08
2022-08-19T09:40:14.595Z,31.68
2022-08-19T09:42:50.296Z,31.42
2022-08-19T09:45:37.425Z,30.87
2022-08-19T09:47:58.057Z,31.56
2022-08-19T09:50:27.408Z,30.16
2022-08-19T09:52:57.507Z,29.88
2022-08-19T09:55:31.455Z,29.39
2022-08-19T09:57:58.039Z,30.11
2022-08-19T10:00:27.789Z,28.91
2022-08-19T10:03:01.030Z,28.94
2022-08-19T10:05:48.474Z,29.87
2022-08-19T10:08:50.225Z,29.42
2022-08-19T10:10:52.276Z,29.89
2022-08-19T10:16:20.200Z,29.89
2022-08-19T10:18:58.713Z,29.59
2022-08-19T10:21:28.050Z,29.79
2022-08-19T10:24:01.072Z,29.51
2022-08-19T10:26:32.752Z,30.68
2022-08-19T10:29:04.160Z,30.53
2022-08-19T10:32:01.275Z,30.56
2022-08-19T10:34:30.110Z,30.09
2022-08-19T10:37:02.079Z,29.67
2022-08-19T10:39:42.424Z,29.64
2022-08-19T10:42:08.466Z,28.97
2022-08-19T10:44:44.698Z,29.32
2022-08-19T10:47:21.897Z,29.98
2022-08-19T10:50:12.433Z,29.28
2022-08-19T10:53:11.740Z,29.37
2022-08-19T10:58:56.343Z,29.11
2022-08-19T11:02:04.492Z,28.71
2022-08-19T11:04:35.782Z,29.22
2022-08-19T11:07:13.529Z,28.90
2022-08-19T11:12:35.607Z,28.84
2022-08-19T11:15:04.565Z,29.08
2022-08-19T11:17:33.341Z,28.18
2022-08-19T11:20:05.476Z,27.96
2022-08-19T11:22:46.663Z,28.46
2022-08-19T11:28:27.336Z,28.77
2022-08-19T11:30:51.309Z,29.19
2022-08-19T11:33:27.001Z,29.09
2022-08-19T11:35:55.796Z,28.00
2022-08-19T11:38:57.782Z,28.53
2022-08-19T11:42:04.200Z,28.27
2022-08-19T11:44:38.484Z,28.51
2022-08-19T11:47:12.266Z,28.80
2022-08-19T11:49:41.484Z,28.40
2022-08-19T11:52:11.828Z,28.28
2022-08-19T11:54:40.684Z,28.33
2022-08-19T11:57:16.775Z,28.57
2022-08-19T11:59:54.298Z,28.72
2022-08-19T12:02:53.158Z,28.22
2022-08-19T12:05:10.218Z,28.01
2022-08-19T12:07:39.606Z,28.08
2022-08-19T12:10:10.615Z,28.26
2022-08-19T12:12:43.794Z,27.77
2022-08-19T12:15:15.167Z,27.71
2022-08-19T12:17:44.587Z,28.29
2022-08-19T12:20:18.431Z,27.53
2022-08-19T12:22:47.199Z,27.39
2022-08-19T12:25:20.443Z,27.75
2022-08-19T12:27:57.320Z,27.54
2022-08-19T12:30:21.917Z,27.94
2022-08-19T12:32:58.628Z,27.50
2022-08-19T12:35:27.777Z,27.46
2022-08-19T12:37:57.338Z,27.73
2022-08-19T12:40:26.796Z,28.70
2022-08-19T12:42:56.294Z,27.74
2022-08-19T12:45:25.693Z,27.60
2022-08-19T12:47:56.420Z,27.47
2022-08-19T12:50:31.819Z,27.50
2022-08-19T12:53:04.663Z,27.62
2022-08-19T12:55:38.090Z,27.68
2022-08-19T12:58:36.420Z,27.26
2022-08-19T13:01:14.649Z,28.11
2022-08-19T13:03:51.827Z,27.68
2022-08-19T13:06:20.615Z,27.16
2022-08-19T13:08:52.004Z,27.19
2022-08-19T13:11:26.822Z,27.35
2022-08-19T13:13:56.584Z,27.03
2022-08-19T13:16:29.242Z,27.47
2022-08-19T13:19:02.528Z,27.28
2022-08-19T13:24:39.056Z,26.91
2022-08-19T13:27:08.061Z,27.77
2022-08-19T13:30:02.529Z,26.93
2022-08-19T13:32:46.173Z,26.78
2022-08-19T13:35:18.742Z,26.70
2022-08-19T13:37:49.090Z,27.27
2022-08-19T13:40:24.920Z,26.78
2022-08-19T13:42:57.711Z,27.00
2022-08-19T13:45:28.327Z,27.17
2022-08-19T13:47:59.870Z,27.23
2022-08-19T13:50:32.504Z,27.23
2022-08-19T13:53:05.730Z,26.21
2022-08-19T13:55:34.751Z,26.21
2022-08-19T13:58:07.163Z,26.80
2022-08-19T14:03:39.245Z,27.33
2022-08-19T14:06:28.803Z,27.33
2022-08-19T14:08:53.842Z,27.91
2022-08-19T14:11:26.590Z,26.89
2022-08-19T14:13:55.635Z,26.89
2022-08-19T14:19:23.561Z,27.27
2022-08-19T14:21:54.298Z,27.23
2022-08-19T14:24:25.021Z,26.69
2022-08-19T14:26:54.008Z,27.28
2022-08-19T14:29:23.094Z,26.66
2022-08-19T14:31:53.750Z,27.45
2022-08-19T14:34:26.018Z,27.45
2022-08-19T14:36:55.708Z,26.80
2022-08-19T14:39:32.009Z,27.17
2022-08-19T14:42:11.263Z,27.15
2022-08-19T14:44:44.938Z,26.88
2022-08-19T14:47:36.874Z,24.76
2022-08-19T14:53:19.344Z,24.43
2022-08-19T14:55:53.892Z,23.66
2022-08-19T14:58:43.602Z,23.75
2022-08-19T15:01:06.017Z,24.03
2022-08-19T15:03:51.152Z,24.15
2022-08-19T15:06:35.288Z,24.13
2022-08-19T15:09:07.269Z,23.64
2022-08-19T15:11:40.567Z,23.39
2022-08-19T15:14:12.799Z,23.12
2022-08-19T15:16:43.134Z,23.55
2022-08-19T15:19:12.868Z,23.56
2022-08-19T15:21:42.198Z,23.15
2022-08-19T15:24:10.920Z,23.43
2022-08-19T15:26:39.649Z,23.35
2022-08-19T15:29:08.329Z,23.54
2022-08-19T15:31:38.910Z,23.43
2022-08-19T15:34:10.060Z,23.30
2022-08-19T15:36:54.414Z,23.06
2022-08-19T15:39:23.308Z,23.51
2022-08-19T15:41:57.237Z,23.44
2022-08-19T15:44:28.662Z,23.06
2022-08-19T15:46:57.901Z,22.86
2022-08-19T15:49:27.071Z,23.48
2022-08-19T15:52:09.880Z,23.56
2022-08-19T15:58:34.553Z,23.02
2022-08-19T16:01:40.428Z,23.43
2022-08-19T16:10:47.002Z,23.88
2022-08-19T16:19:28.329Z,26.58
2022-08-19T16:22:01.095Z,26.99
2022-08-19T16:24:35.092Z,27.71
2022-08-19T16:27:06.842Z,28.25
2022-08-19T16:29:39.134Z,28.87
2022-08-19T16:32:10.318Z,29.13
2022-08-19T16:34:42.515Z,29.42
2022-08-19T16:37:11.663Z,30.20
2022-08-19T16:39:44.364Z,30.84
2022-08-19T16:45:05.066Z,31.25
2022-08-19T16:47:33.823Z,31.31
2022-08-19T16:50:05.232Z,31.50
2022-08-19T16:52:35.006Z,31.67
2022-08-19T16:55:22.621Z,31.90
2022-08-19T16:57:54.686Z,32.01
2022-08-19T17:00:23.737Z,32.78
2022-08-19T17:02:54.270Z,33.18
2022-08-19T17:05:23.294Z,32.95
2022-08-19T17:07:53.411Z,33.25
2022-08-19T17:10:22.784Z,33.08
2022-08-19T17:12:57.423Z,33.58
2022-08-19T17:15:26.122Z,33.77
2022-08-19T17:18:14.368Z,34.36
2022-08-19T17:20:44.007Z,34.81
2022-08-19T17:23:15.800Z,35.34
2022-08-19T17:25:44.221Z,36.63
2022-08-19T17:28:25.556Z,36.88
2022-08-19T17:31:07.840Z,37.33
2022-08-19T17:33:48.103Z,38.27
2022-08-19T17:36:10.702Z,39.00
2022-08-19T17:38:42.323Z,39.98
2022-08-19T17:41:11.649Z,40.49
2022-08-19T17:43:43.924Z,41.22
2022-08-19T17:46:17.646Z,41.73
2022-08-19T17:48:47.402Z,42.23
2022-08-19T17:51:24.602Z,42.13
2022-08-19T17:53:57.530Z,42.79
2022-08-19T17:56:28.101Z,43.57
2022-08-19T17:59:01.635Z,44.58
2022-08-19T18:01:44.029Z,44.71
2022-08-19T18:04:06.003Z,45.32
2022-08-19T18:06:36.693Z,44.89
2022-08-19T18:09:10.011Z,45.72
2022-08-19T18:11:45.229Z,46.39
2022-08-19T18:14:15.801Z,46.46
2022-08-19T18:16:45.182Z,45.94
2022-08-19T18:19:17.227Z,46.15
2022-08-19T18:21:47.272Z,46.85
2022-08-19T18:24:16.992Z,48.32
2022-08-19T18:26:45.740Z,49.12
2022-08-19T18:29:15.057Z,49.08
2022-08-19T18:31:47.788Z,48.74
2022-08-19T18:34:17.155Z,49.16
2022-08-19T18:36:54.158Z,50.03
2022-08-19T18:39:35.216Z,50.88
2022-08-19T18:42:23.784Z,51.29
2022-08-19T18:45:12.748Z,50.84
2022-08-19T18:48:00.378Z,52.46
2022-08-19T18:50:29.110Z,51.75
2022-08-19T18:53:01.863Z,51.46
2022-08-19T18:55:30.490Z,52.05
2022-08-19T18:57:59.246Z,53.65
2022-08-19T19:00:27.936Z,53.54
2022-08-19T19:02:58.131Z,53.93
2022-08-19T19:05:32.637Z,54.22
2022-08-19T19:08:01.724Z,55.46
2022-08-19T19:10:31.556Z,53.91
2022-08-19T19:13:01.550Z,54.15
2022-08-19T19:15:30.334Z,53.76
2022-08-19T19:17:59.884Z,54.13
2022-08-19T19:20:36.378Z,55.12
2022-08-19T19:23:03.532Z,53.80
2022-08-19T19:25:50.713Z,54.40
2022-08-19T19:28:04.189Z,55.74
2022-08-19T19:30:36.384Z,54.98
2022-08-19T19:33:05.581Z,55.48
2022-08-19T19:35:36.084Z,56.18
2022-08-19T19:38:06.492Z,56.02
2022-08-19T19:40:35.270Z,56.04
2022-08-19T19:43:05.670Z,57.04
2022-08-19T19:45:34.676Z,56.74
2022-08-19T19:48:03.383Z,56.00
2022-08-19T19:50:32.501Z,56.09
2022-08-19T19:53:01.208Z,56.44
2022-08-19T19:55:29.904Z,56.70
2022-08-19T19:57:58.574Z,56.12
2022-08-19T20:00:30.382Z,56.24
2022-08-19T20:02:59.019Z,56.26
2022-08-19T20:05:27.926Z,55.89
2022-08-19T20:08:15.230Z,55.99
2022-08-19T20:10:45.170Z,56.28
2022-08-19T20:13:15.916Z,56.68
2022-08-19T20:15:47.337Z,56.63
2022-08-19T20:18:17.399Z,56.45
2022-08-19T20:20:48.038Z,57.14
2022-08-19T20:23:21.769Z,57.84
2022-08-19T20:25:52.192Z,57.76
2022-08-19T20:28:22.944Z,57.86
2022-08-19T20:30:52.194Z,57.85
2022-08-19T20:33:21.090Z,57.64
2022-08-19T20:35:51.882Z,57.11
2022-08-19T20:38:23.959Z,56.69
2022-08-19T20:40:54.063Z,56.08
2022-08-19T20:43:22.820Z,57.07
2022-08-19T20:45:51.532Z,56.25
2022-08-19T20:51:00.815Z,56.04
2022-08-19T20:53:29.527Z,56.26
2022-08-19T20:55:59.731Z,56.62
2022-08-19T20:58:29.100Z,57.10
2022-08-19T21:01:01.155Z,57.54
2022-08-19T21:03:42.913Z,56.57
2022-08-19T21:06:10.409Z,56.32
2022-08-19T21:08:42.005Z,56.29
2022-08-19T21:13:54.508Z,56.15
2022-08-19T21:16:36.777Z,56.39
2022-08-19T21:19:07.417Z,56.60
2022-08-19T21:21:36.314Z,56.30
2022-08-19T21:24:20.592Z,56.47
2022-08-19T21:26:52.838Z,56.76
2022-08-19T21:29:23.558Z,57.08
2022-08-19T21:31:53.772Z,57.54
2022-08-19T21:34:30.236Z,58.02
2022-08-19T21:37:00.008Z,58.01
2022-08-19T21:39:31.804Z,57.78
2022-08-19T21:42:05.174Z,57.19
2022-08-19T21:44:33.999Z,56.94
2022-08-19T21:49:17.963Z,57.17
2022-08-19T21:49:41.501Z,57.58
2022-08-19T21:52:12.723Z,57.63
2022-08-19T21:54:42.455Z,57.41
2022-08-19T21:57:17.393Z,57.11
2022-08-19T21:59:49.544Z,56.75
2022-08-19T22:02:25.628Z,56.61
2022-08-19T22:04:58.977Z,57.01
2022-08-19T22:07:32.624Z,57.12
2022-08-19T22:10:17.070Z,57.00
2022-08-19T22:13:13.758Z,56.96
2022-08-19T22:15:47.949Z,56.88
2022-08-19T22:18:34.860Z,57.01
2022-08-19T22:21:01.196Z,57.12
2022-08-19T22:23:31.897Z,56.93
2022-08-19T22:26:03.895Z,56.54
2022-08-19T22:28:34.300Z,56.16
2022-08-19T22:31:10.157Z,56.59
2022-08-19T22:33:42.782Z,55.88
2022-08-19T22:36:12.015Z,56.14
2022-08-19T22:38:42.086Z,56.46
2022-08-19T22:41:20.880Z,56.59
2022-08-19T22:43:52.761Z,56.56
2022-08-19T22:46:22.003Z,56.60
2022-08-19T22:49:00.943Z,56.94
2022-08-19T22:51:41.056Z,56.64
2022-08-19T22:54:09.884Z,56.59
2022-08-19T22:56:39.740Z,56.79
2022-08-19T22:59:08.606Z,57.10
2022-08-19T23:01:38.946Z,57.27
2022-08-19T23:04:07.861Z,57.47
2022-08-19T23:06:55.776Z,57.81
2022-08-19T23:09:30.437Z,58.10
2022-08-19T23:12:00.932Z,57.55
2022-08-19T23:14:36.050Z,57.80
2022-08-19T23:17:10.045Z,57.86
2022-08-19T23:19:39.148Z,58.17
2022-08-19T23:22:09.503Z,58.13
2022-08-19T23:24:41.075Z,58.39
2022-08-19T23:27:31.046Z,58.88
2022-08-19T23:30:19.983Z,59.15
2022-08-19T23:32:48.854Z,58.76
2022-08-19T23:35:17.639Z,59.05
2022-08-19T23:37:47.050Z,59.16
2022-08-19T23:40:21.152Z,59.40
2022-08-19T23:42:52.003Z,59.37
2022-08-19T23:45:23.949Z,59.54
2022-08-19T23:47:57.649Z,59.51
2022-08-19T23:50:27.773Z,59.65
2022-08-19T23:52:59.047Z,59.89
2022-08-19T23:55:30.677Z,60.28
2022-08-19T23:58:00.050Z,60.35
